Weather reports worldwide

Advertisment
Nimes/Courbessac, France (7645): temperature & dewpoint: 06.12.2018 00:00:00 - 12.12.2018 00:00:00 (CET)Nimes/Courbessac, France (7645): temperature 5cm: 06.12.2018 00:00:00 - 12.12.2018 00:00:00 (CET)Nimes/Courbessac, France (7645): temperature -20cm: 06.12.2018 00:00:00 - 12.12.2018 00:00:00 (CET)Nimes/Courbessac, France (7645): wind speed & gusts: 06.12.2018 00:00:00 - 12.12.2018 00:00:00 (CET)Nimes/Courbessac, France (7645): wind direction: 06.12.2018 00:00:00 - 12.12.2018 00:00:00 (CET)Nimes/Courbessac, France (7645): reduced air pressure: 06.12.2018 00:00:00 - 12.12.2018 00:00:00 (CET)Nimes/Courbessac, France (7645): sunshine duration: 06.12.2018 00:00:00 - 12.12.2018 00:00:00 (CET)Nimes/Courbessac, France (7645): precipitation: 06.12.2018 00:00:00 - 12.12.2018 00:00:00 (CET)
Date & Time tt [°C] td [°C] tt 5cm [°C] tt -20cm [°C] ff [km/h] ff [kn] fx [km/h] fx [kn] dd ppp [hPa] sd [min] rr [mm]
12.12.2018 00:00:00 5,7 -1,7 2,6 8,7 13 7 25 14 N 1021,1 0 0,0
11.12.2018 23:00:00 5,5 -1,7 3,5 8,8 9 5 26 14 NE 1020,7 0 0,0
11.12.2018 22:00:00 6,0 -1,4 4,5 8,8 6 4 19 11 NE 1020,7 0 0,0
11.12.2018 21:00:00 6,8 -1,1 5,2 8,8 4 2 39 21 E 1020,6 0 0,0
11.12.2018 20:00:00 7,6 -1,1 6,9 8,8 20 11 42 23 N 1019,9 0 0,0
11.12.2018 19:00:00 8,0 -0,8 7,0 8,9 22 12 44 24 N 1020,0 0 0,0
11.12.2018 18:00:00 8,1 0,1 6,7 8,8 12 7 33 18 N 1020,0 0 0,0
11.12.2018 17:00:00 9,4 0,3 8,2 8,8 10 5 29 15 N 1019,9 19 0,0
11.12.2018 16:00:00 11,9 0,0 12,0 8,7 18 10 39 21 N 1019,6 60 0,0
11.12.2018 15:00:00 12,6 0,7 14,9 8,6 18 10 42 23 N 1019,8 60 0,0
11.12.2018 14:00:00 12,6 0,7 14,8 8,6 21 11 43 23 N 1020,3 60 0,0
11.12.2018 13:00:00 12,2 0,3 11,8 8,5 23 12 56 30 N 1020,9 60 0,0
11.12.2018 12:00:00 11,6 0,4 11,6 8,5 27 15 49 26 N 1021,6 60 0,0
11.12.2018 11:00:00 10,8 0,5 11,3 8,5 23 12 45 24 N 1022,3 60 0,0
11.12.2018 10:00:00 9,5 0,4 8,5 8,6 21 11 40 22 N 1022,2 60 0,0
11.12.2018 09:00:00 7,7 0,4 5,4 8,6 16 8 27 15 NNW 1022,6 28 0,0
11.12.2018 08:00:00 7,1 -0,1 5,1 8,7 10 5 23 12 NW 1022,7 0 0,0
11.12.2018 07:00:00 6,7 -0,3 2,8 8,8 9 5 20 11 NNW 1023,0 0 0,0
11.12.2018 06:00:00 4,9 -0,5 2,8 8,9 4 2 17 9 NW 1023,3 0 0,0
11.12.2018 05:00:00 5,6 -0,3 4,1 9,0 8 5 18 10 W 1023,6 0 0,0
11.12.2018 04:00:00 6,7 -0,5 3,6 9,1 8 5 21 11 NNW 1024,2 0 0,0
11.12.2018 03:00:00 7,5 -0,2 3,5 9,1 10 6 29 16 NNW 1024,6 0 0,0
11.12.2018 02:00:00 6,4 -0,1 2,9 9,2 7 4 17 9 NNW 1025,0 0 0,0
11.12.2018 01:00:00 4,8 -0,6 0,9 9,4 8 4 12 6 N 1025,6 0 0,0
11.12.2018 00:00:00 4,0 -0,2 0,6 9,4 6 3 8 4 NNW 1025,7 0 0,0
10.12.2018 23:00:00 6,1 -0,2 1,3 9,5 6 4 15 8 W 1025,8 0 0,0
10.12.2018 22:00:00 6,7 -0,1 3,1 9,6 6 3 12 7 NW 1026,3 0 0,0
10.12.2018 21:00:00 6,7 0,1 3,4 9,7 6 4 11 6 NNW 1026,5 0 0,0
10.12.2018 20:00:00 7,5 0,0 4,0 9,7 5 3 12 7 NNW 1026,7 0 0,0
10.12.2018 19:00:00 8,8 0,2 5,4 9,7 5 3 16 9 WNW 1026,3 0 0,0
10.12.2018 18:00:00 10,3 0,3 8,5 9,7 5 3 21 11 NNW 1026,1 0 0,0
10.12.2018 17:00:00 11,5 0,3 10,2 9,6 13 7 35 19 NNW 1025,8 20 0,0
10.12.2018 16:00:00 13,6 3,1 13,6 9,6 11 6 24 13 NNE 1026,0 58 0,0
10.12.2018 15:00:00 12,5 2,9 12,0 9,5 13 7 47 25 NNE 1026,0 24 0,0
10.12.2018 14:00:00 14,3 0,5 15,9 9,5 24 13 48 26 NNW 1026,3 56 0,0
10.12.2018 13:00:00 14,4 1,3 13,1 9,4 22 12 51 28 N 1026,7 52 0,0
10.12.2018 12:00:00 13,2 1,5 13,1 9,4 18 10 44 24 NNW 1027,4 39 0,0
10.12.2018 11:00:00 13,3 1,9 14,8 9,4 16 9 30 16 NW 1027,9 60 0,0
10.12.2018 10:00:00 11,7 2,9 10,5 9,4 9 5 18 10 NW 1028,1 60 0,0
10.12.2018 09:00:00 9,5 2,3 7,1 9,5 9 5 17 9 N 1027,7 24 0,0
10.12.2018 08:00:00 9,0 1,9 7,5 9,5 9 5 25 14 NNW 1027,1 0 0,0
10.12.2018 07:00:00 9,7 1,6 7,9 9,6 13 7 26 14 WNW 1026,6 0 0,0
10.12.2018 06:00:00 9,7 1,8 8,5 9,7 14 7 24 13 WNW 1026,3 0 0,0
10.12.2018 05:00:00 10,3 1,6 9,2 9,7 13 7 35 19 NW 1026,3 0 0,0
10.12.2018 04:00:00 10,3 2,1 5,0 9,8 14 8 27 14 NW 1026,2 0 0,0
10.12.2018 03:00:00 6,9 2,2 3,3 9,9 8 5 12 7 N 1026,3 0 0,0
10.12.2018 02:00:00 9,2 2,3 7,3 9,9 9 5 24 13 NNW 1026,0 0 0,0
10.12.2018 01:00:00 9,4 2,3 7,9 10,0 9 5 21 11 N 1025,7 0 0,0
10.12.2018 00:00:00 9,2 2,7 5,4 10,0 10 5 16 8 WNW 1025,5 0 0,0
09.12.2018 23:00:00 10,1 2,4 8,7 10,1 8 4 24 13 WNW 1025,1 0 0,0
09.12.2018 22:00:00 11,5 3,0 9,3 10,1 16 9 30 16 WNW 1024,4 0 0,0
09.12.2018 21:00:00 11,1 2,9 9,2 10,1 9 5 19 10 NW 1024,0 0 0,0
09.12.2018 20:00:00 11,3 2,6 9,4 10,1 6 4 45 24 N 1023,6 0 0,0
09.12.2018 19:00:00 12,4 3,1 10,8 10,1 14 7 35 19 NW 1022,5 0 0,0
09.12.2018 18:00:00 12,6 3,3 10,3 10,1 12 7 34 19 NW 1022,0 0 0,0
09.12.2018 17:00:00 13,4 2,9 11,9 10,0 9 5 44 24 NNW 1021,2 0 0,0
09.12.2018 16:00:00 14,8 4,2 14,5 9,9 18 10 45 25 WNW 1020,5 1 0,0
09.12.2018 15:00:00 15,4 3,8 15,3 9,8 22 12 54 29 WNW 1019,6 13 0,0
09.12.2018 14:00:00 16,3 4,6 15,8 9,7 22 12 47 26 NW 1019,4 1 0,0
09.12.2018 13:00:00 16,0 5,0 15,6 9,6 16 9 42 23 NW 1019,5 5 0,0
09.12.2018 12:00:00 14,8 7,6 14,4 9,6 6 3 16 9 W 1019,8 2 0,0
09.12.2018 11:00:00 14,7 5,5 11,6 9,6 11 6 31 17 W 1019,9 6 0,0
09.12.2018 10:00:00 12,2 6,9 10,7 9,6 2 1 17 9 W 1019,8 0 0,0
09.12.2018 09:00:00 12,8 7,2 8,2 9,6 12 7 20 11 W 1019,7 6 0,0
09.12.2018 08:00:00 11,6 6,5 6,0 9,7 5 3 21 11 SW 1019,4 0 0,0
09.12.2018 07:00:00 9,3 6,4 6,6 9,7 6 4 16 8 WSW 1019,6 0 0,2
09.12.2018 06:00:00 8,0 6,6 4,1 9,8 5 3 10 5 SW 1019,5 0 0,0
09.12.2018 05:00:00 5,5 4,3 3,2 9,8 0 0 7 4 N 1020,4 0 0,0
09.12.2018 04:00:00 6,5 4,7 3,9 9,9 5 3 9 5 NW 1020,5 0 0,0
09.12.2018 03:00:00 8,5 5,4 4,7 10,0 7 4 12 7 WSW 1021,1 0 0,0
09.12.2018 02:00:00 6,4 5,2 3,9 10,0 3 2 7 4 NW 1021,6 0 0,0
09.12.2018 01:00:00 6,7 4,7 4,5 10,1 0 0 6 3 N 1022,0 0 0,0
09.12.2018 00:00:00 7,6 4,9 5,9 10,1 4 2 7 4 NNW 1022,2 0 0,0
08.12.2018 23:00:00 6,9 4,2 4,9 10,2 4 2 8 5 NW 1022,5 0 0,0
08.12.2018 22:00:00 6,7 4,2 3,8 10,3 5 3 8 5 W 1023,1 0 0,0
08.12.2018 21:00:00 7,7 3,9 4,9 10,3 4 2 10 5 W 1023,6 0 0,0
08.12.2018 20:00:00 7,5 4,1 5,0 10,3 4 2 8 4 W 1023,6 0 0,0
08.12.2018 19:00:00 9,1 3,5 6,5 10,3 3 1 22 12 ENE 1023,3 0 0,0
08.12.2018 18:00:00 12,5 4,0 7,6 10,3 14 7 27 15 NW 1023,5 0 0,0
08.12.2018 17:00:00 11,5 4,0 9,4 10,3 3 1 17 9 NNE 1023,7 1 0,0
08.12.2018 16:00:00 14,1 3,8 13,9 10,2 10 5 28 15 NW 1023,7 60 0,0
08.12.2018 15:00:00 14,7 3,2 15,9 10,1 15 8 36 19 WNW 1023,8 56 0,0
08.12.2018 14:00:00 14,4 3,5 13,9 10,0 17 9 39 21 NW 1024,4 20 0,0
08.12.2018 13:00:00 13,5 2,7 14,3 10,0 5 3 18 10 NNE 1024,9 18 0,0
08.12.2018 12:00:00 13,9 1,5 15,1 10,0 8 4 16 9 NE 1025,3 57 0,0
08.12.2018 11:00:00 12,7 1,4 14,5 10,0 9 5 15 8 NNE 1025,9 60 0,0
08.12.2018 10:00:00 10,7 2,5 4,5 10,1 7 4 13 7 NNW 1025,5 40 0,0
08.12.2018 09:00:00 4,9 1,2 1,7 10,2 5 3 10 6 NW 1025,0 12 0,0
08.12.2018 08:00:00 4,1 0,8 1,3 10,4 4 2 10 5 N 1024,9 0 0,0
08.12.2018 07:00:00 5,7 0,8 2,2 10,4 4 2 16 9 N 1024,0 0 0,0
08.12.2018 06:00:00 7,7 1,1 5,4 10,6 7 4 20 11 NW 1023,4 0 0,0
08.12.2018 05:00:00 8,4 1,1 5,7 10,6 4 2 16 9 NNW 1023,0 0 0,0
08.12.2018 04:00:00 9,1 1,0 7,6 10,7 7 4 27 15 N 1023,0 0 0,0
08.12.2018 03:00:00 9,2 1,4 7,9 10,8 10 5 29 15 WNW 1022,9 0 0,0
08.12.2018 02:00:00 10,1 1,5 8,4 10,8 13 7 28 15 WNW 1022,3 0 0,0
08.12.2018 01:00:00 10,0 1,1 8,8 10,9 12 7 24 13 NNW 1022,3 0 0,0
08.12.2018 00:00:00 11,6 1,2 10,4 10,9 13 7 40 22 WNW 1022,6 0 0,0
07.12.2018 23:00:00 11,9 3,9 10,4 10,9 12 6 32 17 NW 1020,9 0 0,0
07.12.2018 22:00:00 11,4 7,1 9,6 10,9 9 5 20 11 W 1020,9 0 0,0
07.12.2018 21:00:00 10,7 6,8 9,6 10,9 0 0 5 3 N 1020,6 0 0,0
07.12.2018 20:00:00 10,8 6,2 9,6 10,9 0 0 9 5 N 1020,6 0 0,0
07.12.2018 19:00:00 11,5 5,6 9,6 10,9 5 3 11 6 W 1020,5 0 0,0
07.12.2018 18:00:00 12,7 5,1 11,3 10,8 6 3 13 7 WNW 1020,0 0 0,0
07.12.2018 17:00:00 14,4 6,5 13,0 10,8 5 3 16 9 NW 1020,0 24 0,0
07.12.2018 16:00:00 15,6 8,1 16,0 10,7 11 6 17 9 SSE 1019,2 60 0,0
07.12.2018 15:00:00 16,8 7,4 19,9 10,6 9 5 18 10 S 1019,6 60 0,0
07.12.2018 14:00:00 16,7 7,6 19,7 10,5 12 7 21 11 S 1020,2 60 0,0
07.12.2018 13:00:00 16,6 7,0 16,0 10,4 10 5 20 11 SW 1021,9 60 0,0
07.12.2018 12:00:00 16,5 8,7 16,5 10,4 3 1 11 6 SSE 1022,3 60 0,0
07.12.2018 11:00:00 15,0 8,5 15,6 10,4 2 1 14 7 SSE 1022,9 60 0,0
07.12.2018 10:00:00 13,2 8,3 9,4 10,4 0 0 6 3 N 1023,2 60 0,0
07.12.2018 09:00:00 8,5 6,1 7,3 10,5 6 3 13 7 SSW 1023,1 25 0,0
07.12.2018 08:00:00 8,4 7,0 5,0 10,6 9 5 13 7 NNW 1023,0 0 0,0
07.12.2018 07:00:00 7,7 5,8 5,7 10,6 0 0 13 7 N 1023,2 0 0,0
07.12.2018 06:00:00 9,2 7,5 7,0 10,7 6 4 11 6 N 1023,1 0 0,0
07.12.2018 05:00:00 9,5 7,6 7,1 10,8 5 3 14 8 N 1023,3 0 0,0
07.12.2018 04:00:00 9,7 7,8 6,8 10,9 6 3 13 7 NNW 1023,3 0 0,0
07.12.2018 03:00:00 8,9 7,3 6,7 10,9 6 3 11 6 N 1024,1 0 0,0
07.12.2018 02:00:00 11,3 8,2 8,7 10,9 0 0 16 9 N 1024,4 0 0,0
07.12.2018 01:00:00 11,1 8,5 8,3 11,0 8 4 14 7 NW 1024,7 0 0,0
07.12.2018 00:00:00 11,3 8,9 7,7 11,0 9 5 16 9 N 1024,9 0 0,0
06.12.2018 23:00:00 10,0 8,4 7,5 11,1 9 5 15 8 NNW 1025,0 0 0,0
06.12.2018 22:00:00 10,3 8,4 7,3 11,1 6 3 9 5 NW 1025,2 0 0,0
06.12.2018 21:00:00 11,4 8,6 8,3 11,1 3 1 10 6 W 1025,3 0 0,0
06.12.2018 20:00:00 11,1 8,7 8,4 11,1 2 1 15 8 W 1025,0 0 0,0
06.12.2018 19:00:00 13,4 9,1 12,2 11,0 9 5 19 10 N 1024,3 0 0,0
06.12.2018 18:00:00 14,2 9,0 13,0 10,9 11 6 19 11 N 1024,0 0 0,0
06.12.2018 17:00:00 15,7 9,4 15,0 10,8 6 4 14 7 NNE 1023,6 20 0,0
06.12.2018 16:00:00 17,2 10,1 17,3 10,6 5 3 13 7 ENE 1023,3 0 0,0
06.12.2018 15:00:00 18,4 9,2 18,9 10,4 4 2 13 7 N 1022,8 0 0,0
06.12.2018 14:00:00 19,0 8,6 19,2 10,3 11 6 31 17 NNW 1022,5 25 0,0
06.12.2018 13:00:00 18,9 8,5 18,7 10,1 12 7 26 14 WNW 1022,5 32 0,0
06.12.2018 12:00:00 18,6 8,3 18,7 10,1 10 5 22 12 NNW 1023,2 60 0,0
06.12.2018 11:00:00 17,7 9,1 16,2 10,0 7 4 20 11 W 1023,7 60 0,0
06.12.2018 10:00:00 12,9 7,8 10,3 10,1 2 1 15 8 SSW 1023,5 60 0,0
06.12.2018 09:00:00 13,0 7,9 8,6 10,1 6 3 11 6 W 1023,3 33 0,0
06.12.2018 08:00:00 12,6 7,3 8,0 10,2 10 5 31 17 W 1022,5 0 0,0
06.12.2018 07:00:00 11,5 7,2 8,8 10,2 2 1 19 11 SSW 1022,6 0 0,0
06.12.2018 06:00:00 9,6 7,7 4,9 10,3 11 6 17 9 NW 1023,5 0 0,2
06.12.2018 05:00:00 6,6 5,9 4,6 10,3 4 2 9 5 NNW 1023,2 0 0,0
06.12.2018 04:00:00 6,6 5,9 5,1 10,4 2 1 11 6 N 1023,6 0 0,0
06.12.2018 03:00:00 6,6 5,9 4,9 10,5 5 3 15 8 N 1024,0 0 0,0
06.12.2018 02:00:00 6,7 6,0 5,1 10,6 4 2 9 5 NNW 1023,8 0 0,0
06.12.2018 01:00:00 6,7 5,3 4,7 10,6 2 1 13 7 NNE 1024,3 0 0,0
06.12.2018 00:00:00 6,7 5,6 4,5 10,7 5 3 10 5 NNW 1024,2 0 0,0

tt = temperature
td = dewpoint
tt 5cm = temperature 5cm
tt -20cm = temperature -20cm
ff = wind speed
fx = gusts
dd = wind direction
ppp = reduced air pressure
sd = sunshine duration
rr = precipitation

Next stations